createdAt,value
2018-02-15T00:00:41.692Z,13.93
2018-02-15T00:03:09.204Z,12.98
2018-02-15T00:05:36.753Z,14.48
2018-02-15T00:08:04.263Z,12.90
2018-02-15T00:10:32.566Z,14.82
2018-02-15T00:13:00.869Z,13.20
2018-02-15T00:15:28.391Z,13.35
2018-02-15T00:17:55.944Z,13.32
2018-02-15T00:20:23.471Z,13.70
2018-02-15T00:22:51.020Z,12.93
2018-02-15T00:25:18.518Z,11.85
2018-02-15T00:27:46.063Z,12.40
2018-02-15T00:30:13.591Z,12.55
2018-02-15T00:32:41.122Z,11.50
2018-02-15T00:35:08.635Z,12.35
2018-02-15T00:37:38.180Z,11.98
2018-02-15T00:43:17.716Z,11.30
2018-02-15T00:45:49.214Z,11.40
2018-02-15T00:48:33.193Z,11.52
2018-02-15T00:51:05.198Z,12.07
2018-02-15T00:53:38.506Z,11.73
2018-02-15T00:56:09.780Z,11.32
2018-02-15T00:58:39.824Z,10.40
2018-02-15T01:01:08.118Z,10.73
2018-02-15T01:03:35.678Z,10.32
2018-02-15T01:06:03.194Z,10.65
2018-02-15T01:08:30.705Z,10.35
2018-02-15T01:10:58.258Z,10.32
2018-02-15T01:13:26.721Z,10.80
2018-02-15T01:15:54.238Z,11.65
2018-02-15T01:18:25.981Z,10.48
2018-02-15T01:20:53.523Z,10.60
2018-02-15T01:23:21.094Z,10.27
2018-02-15T01:25:51.652Z,10.70
2018-02-15T01:28:19.209Z,9.57
2018-02-15T01:30:48.561Z,10.43
2018-02-15T01:33:17.812Z,9.80
2018-02-15T01:35:46.276Z,10.65
2018-02-15T01:38:13.818Z,10.18
2018-02-15T01:40:41.334Z,10.60
2018-02-15T01:43:09.610Z,10.18
2018-02-15T01:45:38.739Z,9.88
2018-02-15T01:48:07.936Z,9.50
2018-02-15T01:50:36.382Z,9.43
2018-02-15T01:53:03.912Z,9.10
2018-02-15T01:55:34.141Z,10.05
2018-02-15T01:58:01.668Z,8.90
2018-02-15T02:00:30.849Z,9.88
2018-02-15T02:03:00.496Z,11.75
2018-02-15T02:05:28.033Z,9.45
2018-02-15T02:07:56.458Z,9.43
2018-02-15T02:10:26.567Z,10.05
2018-02-15T02:12:54.107Z,9.90
2018-02-15T02:15:21.620Z,8.80
2018-02-15T02:17:49.168Z,9.70
2018-02-15T02:20:17.425Z,9.15
2018-02-15T02:22:44.914Z,9.68
2018-02-15T02:25:12.459Z,9.18
2018-02-15T02:27:40.762Z,10.15
2018-02-15T02:30:08.321Z,9.75
2018-02-15T02:32:35.835Z,8.95
2018-02-15T02:35:03.360Z,8.98
2018-02-15T02:37:30.867Z,9.75
2018-02-15T02:39:59.179Z,9.90
2018-02-15T02:42:26.691Z,9.75
2018-02-15T02:44:54.981Z,9.65
2018-02-15T02:47:23.268Z,9.65
2018-02-15T02:49:50.778Z,9.60
2018-02-15T02:52:18.306Z,8.75
2018-02-15T02:54:45.820Z,9.55
2018-02-15T02:57:14.203Z,10.15
2018-02-15T02:59:42.512Z,10.02
2018-02-15T03:02:10.783Z,10.20
2018-02-15T03:04:38.303Z,9.30
2018-02-15T03:07:05.822Z,10.18
2018-02-15T03:09:33.341Z,10.55
2018-02-15T03:12:01.631Z,9.35
2018-02-15T03:14:29.148Z,10.35
2018-02-15T03:16:56.670Z,10.68
2018-02-15T03:19:24.199Z,9.30
2018-02-15T03:21:51.736Z,9.50
2018-02-15T03:24:20.003Z,9.52
2018-02-15T03:26:47.509Z,9.35
2018-02-15T03:29:15.025Z,8.63
2018-02-15T03:31:43.306Z,9.52
2018-02-15T03:34:11.635Z,9.13
2018-02-15T03:36:39.119Z,9.68
2018-02-15T03:39:06.619Z,9.77
2018-02-15T03:41:34.242Z,9.50
2018-02-15T03:44:01.734Z,8.43
2018-02-15T03:46:29.246Z,9.48
2018-02-15T03:48:56.803Z,9.40
2018-02-15T03:51:24.313Z,8.95
2018-02-15T03:53:51.849Z,8.98
2018-02-15T03:56:20.127Z,9.70
2018-02-15T03:58:48.421Z,9.23
2018-02-15T04:01:16.006Z,9.57
2018-02-15T04:03:43.512Z,9.82
2018-02-15T04:06:11.021Z,9.85
2018-02-15T04:08:38.550Z,9.65
2018-02-15T04:11:06.819Z,9.02
2018-02-15T04:13:35.148Z,8.13
2018-02-15T04:16:02.656Z,8.70
2018-02-15T04:18:30.917Z,9.30
2018-02-15T04:20:58.455Z,8.80
2018-02-15T04:23:25.988Z,8.82
2018-02-15T04:25:53.500Z,9.05
2018-02-15T04:28:21.795Z,8.30
2018-02-15T04:30:49.325Z,8.50
2018-02-15T04:33:16.867Z,9.15
2018-02-15T04:35:44.355Z,9.15
2018-02-15T04:38:12.649Z,8.95
2018-02-15T04:40:40.230Z,9.20
2018-02-15T04:43:07.884Z,8.60
2018-02-15T04:45:35.494Z,8.77
2018-02-15T04:48:03.042Z,8.77
2018-02-15T04:50:30.558Z,8.65
2018-02-15T04:52:58.070Z,9.30
2018-02-15T04:55:25.613Z,8.10
2018-02-15T04:57:53.100Z,8.98
2018-02-15T05:00:20.646Z,8.68
2018-02-15T05:02:48.166Z,9.13
2018-02-15T05:05:15.673Z,8.90
2018-02-15T05:07:43.209Z,8.98
2018-02-15T05:10:10.746Z,8.68
2018-02-15T05:12:38.269Z,8.45
2018-02-15T05:15:06.920Z,8.20
2018-02-15T05:17:34.422Z,8.82
2018-02-15T05:20:01.947Z,8.45
2018-02-15T05:22:29.445Z,8.70
2018-02-15T05:24:56.974Z,9.40
2018-02-15T05:27:24.461Z,8.85
2018-02-15T05:29:51.969Z,8.80
2018-02-15T05:32:19.509Z,9.20
2018-02-15T05:34:47.030Z,8.30
2018-02-15T05:37:14.526Z,9.15
2018-02-15T05:39:42.078Z,8.80
2018-02-15T05:42:09.585Z,9.10
2018-02-15T05:44:37.879Z,9.90
2018-02-15T05:47:05.369Z,8.60
2018-02-15T05:49:32.890Z,8.60
2018-02-15T05:52:00.387Z,8.70
2018-02-15T05:54:27.923Z,9.13
2018-02-15T05:56:55.415Z,8.23
2018-02-15T05:59:22.919Z,8.93
2018-02-15T06:01:51.223Z,8.40
2018-02-15T06:04:18.758Z,8.85
2018-02-15T06:06:46.288Z,9.13
2018-02-15T06:09:13.872Z,8.80
2018-02-15T06:11:41.462Z,8.50
2018-02-15T06:14:08.988Z,8.82
2018-02-15T06:16:36.568Z,8.15
2018-02-15T06:19:04.127Z,9.13
2018-02-15T06:21:31.721Z,8.40
2018-02-15T06:23:59.285Z,8.75
2018-02-15T06:26:26.845Z,8.15
2018-02-15T06:28:54.419Z,8.60
2018-02-15T06:31:22.039Z,8.93
2018-02-15T06:33:49.578Z,8.85
2018-02-15T06:36:17.278Z,8.80
2018-02-15T06:38:44.852Z,7.45
2018-02-15T06:41:12.480Z,8.20
2018-02-15T06:43:40.070Z,7.47
2018-02-15T06:46:07.613Z,8.50
2018-02-15T06:48:35.226Z,8.93
2018-02-15T06:51:03.548Z,8.52
2018-02-15T06:53:31.062Z,8.50
2018-02-15T06:55:59.380Z,8.82
2018-02-15T06:58:26.957Z,9.35
2018-02-15T07:00:54.490Z,9.35
2018-02-15T07:03:22.070Z,8.18
2018-02-15T07:05:49.638Z,8.80
2018-02-15T07:08:17.219Z,8.52
2018-02-15T07:10:44.749Z,9.13
2018-02-15T07:13:12.307Z,9.25
2018-02-15T07:15:39.859Z,10.25
2018-02-15T07:18:07.396Z,10.45
2018-02-15T07:20:34.991Z,11.35
2018-02-15T07:23:02.494Z,11.40
2018-02-15T07:25:30.054Z,11.45
2018-02-15T07:27:57.728Z,11.35
2018-02-15T07:30:25.262Z,11.90
2018-02-15T07:32:53.559Z,11.85
2018-02-15T07:35:21.130Z,11.27
2018-02-15T07:37:48.688Z,12.30
2018-02-15T07:40:16.248Z,12.10
2018-02-15T07:42:43.787Z,13.35
2018-02-15T07:45:12.083Z,14.00
2018-02-15T07:47:39.677Z,13.10
2018-02-15T07:50:07.245Z,13.95
2018-02-15T07:52:34.806Z,14.10
2018-02-15T07:55:02.387Z,15.23
2018-02-15T07:57:30.726Z,15.05
2018-02-15T07:59:58.288Z,15.50
2018-02-15T08:02:25.816Z,13.80
2018-02-15T08:04:53.350Z,13.98
2018-02-15T08:07:21.701Z,14.35
2018-02-15T08:09:49.216Z,13.57
2018-02-15T08:12:16.767Z,14.05
2018-02-15T08:14:44.307Z,13.15
2018-02-15T08:17:12.631Z,12.85
2018-02-15T08:19:40.163Z,14.05
2018-02-15T08:22:07.740Z,13.30
2018-02-15T08:24:35.309Z,12.60
2018-02-15T08:27:02.835Z,13.93
2018-02-15T08:29:30.388Z,13.52
2018-02-15T08:31:57.988Z,12.50
2018-02-15T08:34:25.542Z,11.82
2018-02-15T08:36:53.136Z,12.37
2018-02-15T08:39:20.682Z,12.75
2018-02-15T08:41:48.312Z,12.75
2018-02-15T08:44:15.897Z,13.23
2018-02-15T08:46:43.466Z,12.98
2018-02-15T08:49:10.984Z,12.82
2018-02-15T08:51:40.836Z,13.57
2018-02-15T08:54:08.419Z,13.18
2018-02-15T08:56:36.755Z,12.98
2018-02-15T08:59:04.348Z,12.90
2018-02-15T09:01:32.687Z,13.18
2018-02-15T09:04:00.239Z,14.05
2018-02-15T09:06:35.230Z,13.18
2018-02-15T09:09:03.569Z,13.60
2018-02-15T09:11:31.128Z,13.48
2018-02-15T09:13:58.982Z,12.25
2018-02-15T09:16:26.539Z,13.23
2018-02-15T09:18:54.284Z,13.75
2018-02-15T09:21:22.744Z,14.15
2018-02-15T09:23:51.119Z,13.70
2018-02-15T09:26:18.656Z,14.35
2018-02-15T09:28:46.217Z,14.45
2018-02-15T09:31:13.754Z,12.95
2018-02-15T09:33:41.343Z,15.18
2018-02-15T09:36:09.005Z,14.00
2018-02-15T09:38:36.606Z,15.52
2018-02-15T09:41:04.178Z,15.20
2018-02-15T09:43:31.747Z,13.98
2018-02-15T09:45:59.274Z,15.55
2018-02-15T09:48:26.842Z,14.87
2018-02-15T09:50:54.409Z,14.87
2018-02-15T09:53:21.939Z,15.68
2018-02-15T09:55:50.232Z,15.45
2018-02-15T09:58:17.840Z,15.38
2018-02-15T10:00:45.444Z,16.62
2018-02-15T10:03:13.024Z,15.60
2018-02-15T10:05:40.581Z,14.85
2018-02-15T10:08:08.115Z,16.37
2018-02-15T10:10:35.652Z,15.25
2018-02-15T10:13:03.245Z,16.17
2018-02-15T10:15:42.835Z,15.93
2018-02-15T10:18:10.560Z,15.40
2018-02-15T10:20:38.140Z,16.67
2018-02-15T10:23:05.709Z,17.42
2018-02-15T10:25:33.245Z,16.83
2018-02-15T10:28:00.804Z,17.92
2018-02-15T10:30:28.352Z,17.92
2018-02-15T10:32:55.916Z,18.10
2018-02-15T10:35:23.495Z,17.83
2018-02-15T10:37:51.079Z,17.77
2018-02-15T10:40:18.660Z,17.85
2018-02-15T10:42:47.005Z,17.70
2018-02-15T10:45:14.599Z,18.20
2018-02-15T10:47:42.151Z,18.45
2018-02-15T10:50:09.679Z,19.70
2018-02-15T10:52:37.254Z,18.08
2018-02-15T10:55:04.794Z,19.25
2018-02-15T10:57:46.561Z,20.02
2018-02-15T11:00:21.367Z,19.30
2018-02-15T11:03:13.065Z,19.10
2018-02-15T11:05:40.881Z,19.10
2018-02-15T11:08:08.455Z,20.65
2018-02-15T11:10:35.991Z,21.08
2018-02-15T11:13:03.544Z,20.65
2018-02-15T11:18:15.175Z,20.52
2018-02-15T11:20:42.734Z,18.37
2018-02-15T11:23:10.260Z,18.75
2018-02-15T11:25:38.616Z,19.92
2018-02-15T11:28:06.960Z,19.33
2018-02-15T11:30:35.515Z,20.12
2018-02-15T11:33:05.880Z,30.70
2018-02-15T11:35:33.562Z,19.75
2018-02-15T11:38:09.150Z,19.15
2018-02-15T11:40:36.721Z,19.52
2018-02-15T11:43:04.923Z,17.80
2018-02-15T11:45:32.458Z,19.87
2018-02-15T11:48:00.085Z,18.90
2018-02-15T11:50:28.687Z,18.08
2018-02-15T11:52:56.288Z,19.92
2018-02-15T11:55:23.856Z,21.00
2018-02-15T11:57:51.407Z,20.37
2018-02-15T12:00:18.995Z,21.20
2018-02-15T12:02:46.540Z,21.25
2018-02-15T12:05:14.125Z,19.70
2018-02-15T12:07:41.688Z,19.42
2018-02-15T12:10:10.014Z,20.85
2018-02-15T12:12:37.558Z,19.50
2018-02-15T12:15:05.076Z,22.42
2018-02-15T12:17:33.441Z,21.12
2018-02-15T12:20:00.990Z,20.40
2018-02-15T12:22:28.548Z,21.40
2018-02-15T12:24:56.121Z,19.15
2018-02-15T12:27:23.675Z,18.95
2018-02-15T12:29:51.249Z,18.67
2018-02-15T12:32:19.544Z,18.40
2018-02-15T12:34:47.106Z,19.90
2018-02-15T12:37:14.635Z,20.02
2018-02-15T12:39:42.181Z,20.35
2018-02-15T12:42:09.745Z,21.08
2018-02-15T12:44:37.301Z,20.40
2018-02-15T12:47:04.976Z,23.58
2018-02-15T12:49:32.469Z,30.45
2018-02-15T12:52:00.014Z,22.77
2018-02-15T12:54:27.599Z,23.35
2018-02-15T12:56:55.137Z,26.62
2018-02-15T12:59:22.722Z,23.25
2018-02-15T13:01:50.311Z,23.30
2018-02-15T13:04:17.900Z,25.42
2018-02-15T13:06:45.481Z,23.62
2018-02-15T13:09:13.028Z,21.87
2018-02-15T13:11:40.583Z,22.48
2018-02-15T13:14:08.908Z,22.98
2018-02-15T13:16:48.240Z,25.88
2018-02-15T13:19:27.715Z,23.52
2018-02-15T13:21:55.290Z,23.70
2018-02-15T13:24:23.595Z,24.37
2018-02-15T13:26:51.245Z,24.90
2018-02-15T13:29:18.799Z,23.85
2018-02-15T13:31:46.350Z,27.00
2018-02-15T13:34:14.677Z,25.00
2018-02-15T13:36:42.228Z,24.90
2018-02-15T13:39:10.557Z,25.67
2018-02-15T13:41:38.901Z,26.48
2018-02-15T13:44:06.483Z,25.92
2018-02-15T13:46:34.015Z,25.92
2018-02-15T13:49:01.580Z,31.10
2018-02-15T13:51:29.111Z,27.73
2018-02-15T13:53:56.686Z,27.23
2018-02-15T13:56:24.234Z,26.40
2018-02-15T13:58:51.798Z,28.20
2018-02-15T14:01:19.369Z,27.15
2018-02-15T14:03:46.900Z,26.58
2018-02-15T14:06:14.610Z,25.48
2018-02-15T14:08:42.220Z,27.37
2018-02-15T14:11:09.953Z,26.50
2018-02-15T14:13:38.315Z,27.70
2018-02-15T14:16:05.892Z,27.60
2018-02-15T14:18:34.234Z,27.23
2018-02-15T14:21:01.806Z,29.37
2018-02-15T14:23:29.383Z,31.67
2018-02-15T14:25:56.947Z,29.63
2018-02-15T14:28:25.300Z,28.62
2018-02-15T14:30:52.851Z,28.02
2018-02-15T14:33:20.448Z,30.05
2018-02-15T14:35:48.784Z,29.08
2018-02-15T14:38:16.329Z,30.83
2018-02-15T14:40:43.915Z,29.50
2018-02-15T14:43:11.509Z,28.48
2018-02-15T14:45:39.812Z,30.88
2018-02-15T14:48:07.371Z,47.00
2018-02-15T14:50:35.047Z,39.65
2018-02-15T14:53:02.652Z,32.45
2018-02-15T14:55:30.187Z,29.90
2018-02-15T14:57:57.753Z,31.35
2018-02-15T15:00:25.327Z,31.25
2018-02-15T15:02:52.878Z,30.55
2018-02-15T15:05:21.417Z,30.80
2018-02-15T15:07:49.813Z,30.52
2018-02-15T15:10:17.415Z,32.00
2018-02-15T15:12:45.793Z,31.60
2018-02-15T15:15:13.377Z,32.95
2018-02-15T15:17:55.651Z,31.83
2018-02-15T15:20:23.269Z,31.17
2018-02-15T15:22:50.882Z,30.80
2018-02-15T15:25:19.177Z,30.02
2018-02-15T15:27:46.783Z,32.78
2018-02-15T15:30:14.389Z,33.55
2018-02-15T15:32:46.454Z,30.90
2018-02-15T15:35:14.047Z,32.95
2018-02-15T15:37:41.603Z,34.15
2018-02-15T15:40:09.196Z,32.40
2018-02-15T15:42:36.784Z,33.42
2018-02-15T15:45:04.415Z,32.05
2018-02-15T15:47:31.989Z,33.38
2018-02-15T15:50:00.324Z,34.80
2018-02-15T15:52:27.892Z,34.22
2018-02-15T15:54:55.476Z,33.63
2018-02-15T15:57:23.109Z,33.47
2018-02-15T15:59:50.702Z,34.45
2018-02-15T16:02:18.315Z,33.67
2018-02-15T16:04:45.887Z,34.92
2018-02-15T16:07:13.466Z,35.78
2018-02-15T16:09:41.056Z,35.95
2018-02-15T16:12:08.618Z,35.33
2018-02-15T16:14:36.198Z,37.25
2018-02-15T16:17:04.559Z,38.63
2018-02-15T16:19:32.879Z,36.25
2018-02-15T16:22:00.449Z,35.72
2018-02-15T16:24:39.744Z,38.42
2018-02-15T16:27:08.644Z,36.08
2018-02-15T16:29:36.188Z,34.00
2018-02-15T16:32:04.582Z,35.20
2018-02-15T16:34:33.271Z,35.30
2018-02-15T16:37:00.832Z,35.20
2018-02-15T16:39:28.383Z,36.30
2018-02-15T16:41:57.363Z,37.50
2018-02-15T16:44:25.679Z,37.20
2018-02-15T16:46:53.261Z,36.65
2018-02-15T16:49:21.289Z,32.85
2018-02-15T16:51:48.979Z,32.88
2018-02-15T16:54:16.561Z,36.70
2018-02-15T16:56:44.133Z,37.13
2018-02-15T16:59:11.717Z,41.92
2018-02-15T17:01:40.048Z,37.00
2018-02-15T17:04:07.611Z,35.83
2018-02-15T17:06:35.253Z,33.65
2018-02-15T17:09:02.828Z,33.60
2018-02-15T17:11:30.368Z,33.33
2018-02-15T17:13:57.920Z,33.80
2018-02-15T17:16:25.513Z,34.83
2018-02-15T17:18:53.096Z,35.33
2018-02-15T17:21:20.718Z,35.97
2018-02-15T17:23:48.353Z,36.03
2018-02-15T17:26:16.672Z,35.85
2018-02-15T17:28:44.300Z,35.80
2018-02-15T17:31:11.878Z,36.13
2018-02-15T17:33:39.450Z,35.35
2018-02-15T17:36:06.991Z,42.10
2018-02-15T17:38:34.569Z,42.30
2018-02-15T17:41:02.126Z,40.08
2018-02-15T17:43:29.701Z,38.10
2018-02-15T17:45:57.281Z,39.33
2018-02-15T17:48:25.598Z,36.97
2018-02-15T17:50:53.947Z,34.65
2018-02-15T17:53:21.505Z,35.10
2018-02-15T17:55:49.835Z,34.72
2018-02-15T17:58:17.399Z,34.42
2018-02-15T18:00:44.982Z,33.92
2018-02-15T18:03:12.521Z,31.58
2018-02-15T18:05:40.099Z,36.55
2018-02-15T18:08:07.669Z,35.72
2018-02-15T18:10:36.006Z,33.38
2018-02-15T18:13:03.553Z,33.67
2018-02-15T18:15:31.132Z,30.92
2018-02-15T18:17:58.710Z,33.10
2018-02-15T18:20:26.341Z,34.85
2018-02-15T18:22:53.894Z,33.33
2018-02-15T18:25:21.463Z,34.35
2018-02-15T18:27:49.041Z,34.25
2018-02-15T18:30:16.614Z,34.35
2018-02-15T18:32:44.145Z,33.72
2018-02-15T18:35:11.721Z,34.25
2018-02-15T18:37:39.283Z,32.47
2018-02-15T18:40:06.843Z,32.65
2018-02-15T18:42:34.413Z,30.73
2018-02-15T18:45:01.971Z,31.08
2018-02-15T18:47:29.535Z,33.85
2018-02-15T18:49:57.108Z,33.58
2018-02-15T18:52:25.447Z,33.50
2018-02-15T18:54:53.029Z,31.37
2018-02-15T18:57:20.609Z,31.35
2018-02-15T18:59:48.946Z,30.20
2018-02-15T19:02:16.482Z,30.27
2018-02-15T19:04:44.135Z,30.08
2018-02-15T19:07:11.762Z,29.12
2018-02-15T19:09:39.436Z,28.02
2018-02-15T19:12:08.283Z,29.00
2018-02-15T19:14:35.993Z,29.05
2018-02-15T19:17:03.655Z,30.02
2018-02-15T19:19:31.285Z,29.10
2018-02-15T19:21:59.021Z,29.58
2018-02-15T19:24:26.726Z,31.40
2018-02-15T19:26:55.149Z,30.75
2018-02-15T19:29:22.852Z,30.20
2018-02-15T19:31:50.817Z,31.15
2018-02-15T19:34:19.006Z,29.33
2018-02-15T19:36:47.756Z,30.85
2018-02-15T19:39:16.212Z,30.55
2018-02-15T19:41:43.845Z,31.00
2018-02-15T19:44:13.133Z,28.27
2018-02-15T19:46:41.857Z,30.12
2018-02-15T19:49:09.930Z,29.75
2018-02-15T19:51:37.678Z,30.83
2018-02-15T19:54:27.456Z,31.85
2018-02-15T19:56:55.746Z,30.50
2018-02-15T19:59:24.405Z,30.37
2018-02-15T20:01:52.223Z,30.62
2018-02-15T20:04:20.853Z,31.65
2018-02-15T20:06:48.750Z,30.45
2018-02-15T20:09:16.442Z,31.98
2018-02-15T20:11:44.195Z,30.50
2018-02-15T20:14:11.814Z,31.73
2018-02-15T20:16:39.526Z,27.75
2018-02-15T20:19:07.757Z,29.10
2018-02-15T20:21:35.556Z,31.30
2018-02-15T20:24:04.754Z,33.40
2018-02-15T20:26:39.060Z,32.10
2018-02-15T20:29:07.371Z,34.20
2018-02-15T20:31:35.024Z,31.08
2018-02-15T20:34:03.108Z,29.83
2018-02-15T20:36:32.087Z,29.95
2018-02-15T20:39:09.270Z,30.83
2018-02-15T20:41:44.841Z,31.55
2018-02-15T20:44:14.253Z,29.58
2018-02-15T20:46:41.993Z,30.52
2018-02-15T20:49:15.992Z,30.48
2018-02-15T20:51:49.208Z,32.10
2018-02-15T20:54:23.416Z,32.75
2018-02-15T20:56:55.106Z,32.30
2018-02-15T20:59:22.729Z,31.20
2018-02-15T21:01:50.380Z,31.65
2018-02-15T21:04:18.836Z,29.37
2018-02-15T21:06:46.726Z,30.33
2018-02-15T21:09:14.306Z,30.17
2018-02-15T21:11:42.156Z,29.27
2018-02-15T21:14:09.744Z,29.80
2018-02-15T21:16:37.341Z,27.85
2018-02-15T21:19:04.939Z,28.50
2018-02-15T21:21:32.514Z,30.20
2018-02-15T21:24:00.089Z,29.77
2018-02-15T21:26:28.520Z,30.08
2018-02-15T21:28:56.107Z,29.27
2018-02-15T21:31:23.683Z,30.40
2018-02-15T21:33:51.256Z,30.42
2018-02-15T21:36:19.560Z,27.40
2018-02-15T21:38:47.144Z,28.48
2018-02-15T21:41:14.718Z,26.00
2018-02-15T21:43:42.296Z,27.33
2018-02-15T21:46:09.841Z,28.48
2018-02-15T21:48:37.392Z,29.02
2018-02-15T21:51:04.988Z,30.00
2018-02-15T21:53:33.356Z,30.08
2018-02-15T21:56:01.341Z,31.87
2018-02-15T21:58:29.665Z,27.33
2018-02-15T22:00:57.239Z,27.52
2018-02-15T22:03:36.864Z,27.27
2018-02-15T22:06:04.980Z,26.92
2018-02-15T22:08:32.771Z,26.48
2018-02-15T22:11:01.130Z,28.10
2018-02-15T22:13:29.504Z,26.10
2018-02-15T22:15:57.052Z,26.48
2018-02-15T22:18:24.671Z,26.70
2018-02-15T22:20:52.294Z,25.52
2018-02-15T22:23:19.853Z,27.00
2018-02-15T22:25:48.170Z,27.23
2018-02-15T22:28:15.756Z,27.55
2018-02-15T22:30:43.292Z,30.08
2018-02-15T22:33:10.833Z,31.58
2018-02-15T22:35:38.335Z,33.00
2018-02-15T22:38:05.863Z,31.58
2018-02-15T22:40:33.366Z,30.85
2018-02-15T22:43:00.868Z,28.95
2018-02-15T22:45:28.387Z,28.87
2018-02-15T22:47:56.434Z,28.80
2018-02-15T22:50:23.947Z,33.58
2018-02-15T22:52:51.463Z,30.60
2018-02-15T22:55:19.024Z,27.02
2018-02-15T22:57:46.559Z,32.60
2018-02-15T23:00:14.086Z,32.90
2018-02-15T23:02:41.634Z,30.60
2018-02-15T23:05:09.927Z,31.73
2018-02-15T23:07:37.449Z,30.02
2018-02-15T23:10:04.996Z,32.03
2018-02-15T23:12:32.629Z,32.97
2018-02-15T23:15:00.163Z,34.78
2018-02-15T23:17:27.691Z,34.80
2018-02-15T23:19:56.027Z,34.38
2018-02-15T23:22:23.551Z,33.75
2018-02-15T23:24:51.070Z,33.50
2018-02-15T23:27:18.608Z,33.22
2018-02-15T23:29:46.118Z,34.17
2018-02-15T23:32:14.384Z,33.78
2018-02-15T23:34:42.729Z,35.80
2018-02-15T23:37:10.264Z,33.67
2018-02-15T23:39:37.766Z,32.88
2018-02-15T23:42:05.308Z,32.72
2018-02-15T23:44:32.823Z,31.25
2018-02-15T23:47:00.498Z,30.65
2018-02-15T23:49:28.789Z,33.13
2018-02-15T23:51:56.294Z,33.05
2018-02-15T23:54:24.584Z,31.08
2018-02-15T23:56:52.886Z,29.75
2018-02-15T23:59:20.400Z,31.70
